createdAt,value
2023-01-09T00:29:46.717Z,985.83
2023-01-09T00:30:27.531Z,985.86
2023-01-09T00:31:08.065Z,985.85
2023-01-09T00:31:48.558Z,985.88
2023-01-09T00:32:29.089Z,985.93
2023-01-09T00:33:09.557Z,985.88
2023-01-09T00:33:50.059Z,985.87
2023-01-09T00:34:30.514Z,985.93
2023-01-09T00:35:11.003Z,985.89
2023-01-09T00:35:51.601Z,985.98
2023-01-09T00:36:32.059Z,985.99
2023-01-09T00:37:12.592Z,985.94
2023-01-09T00:37:53.062Z,985.96
2023-01-09T00:38:33.607Z,985.93
2023-01-09T00:39:14.083Z,985.97
2023-01-09T00:39:54.584Z,986.01
2023-01-09T00:40:35.067Z,985.94
2023-01-09T00:41:15.566Z,985.97
2023-01-09T00:41:56.052Z,985.98
2023-01-09T00:42:36.547Z,985.99
2023-01-09T00:43:17.058Z,985.98
2023-01-09T00:43:57.561Z,985.98
2023-01-09T00:44:38.076Z,985.98
2023-01-09T00:45:18.558Z,985.99
2023-01-09T00:46:39.500Z,985.97
2023-01-09T00:47:20.033Z,985.97
2023-01-09T00:48:00.473Z,985.97
2023-01-09T00:48:40.997Z,985.98
2023-01-09T00:49:21.503Z,985.96
2023-01-09T00:50:01.977Z,985.99
2023-01-09T00:50:42.452Z,985.99
2023-01-09T00:51:22.956Z,985.99
2023-01-09T00:52:03.467Z,985.99
2023-01-09T00:52:43.961Z,985.96
2023-01-09T00:53:24.426Z,985.99
2023-01-09T00:54:04.976Z,986.01
2023-01-09T00:54:45.403Z,986.02
2023-01-09T00:55:25.918Z,986
2023-01-09T00:56:46.900Z,986.03
2023-01-09T00:57:27.387Z,986.03
2023-01-09T00:58:07.878Z,986.05
2023-01-09T00:58:48.366Z,986.07
2023-01-09T00:59:28.873Z,986.09
2023-01-09T01:00:09.406Z,986.06
2023-01-09T01:00:50.042Z,986.09
2023-01-09T01:01:30.543Z,986.08
2023-01-09T01:02:11.140Z,986.09
2023-01-09T01:04:24.623Z,986.12
2023-01-09T01:05:05.130Z,986.14
2023-01-09T01:05:45.605Z,986.13
2023-01-09T01:06:26.095Z,986.12
2023-01-09T01:07:06.589Z,986.16
2023-01-09T01:07:47.099Z,986.13
2023-01-09T01:08:27.583Z,986.17
2023-01-09T01:09:08.069Z,986.16
2023-01-09T01:09:48.557Z,986.17
2023-01-09T01:10:29.037Z,986.15
2023-01-09T01:11:09.479Z,986.16
2023-01-09T01:11:49.951Z,986.14
2023-01-09T01:12:30.419Z,986.18
2023-01-09T01:13:10.924Z,986.14
2023-01-09T01:15:08.566Z,986.08
2023-01-09T01:15:49.037Z,986.09
2023-01-09T01:16:29.652Z,986.12
2023-01-09T01:17:10.050Z,986.13
2023-01-09T01:17:50.515Z,986.11
2023-01-09T01:18:30.992Z,986.09
2023-01-09T01:19:11.523Z,986.08
2023-01-09T01:19:52.031Z,986.1
2023-01-09T01:20:32.535Z,986.12
2023-01-09T01:21:13.055Z,986.12
2023-01-09T01:21:53.544Z,986.12
2023-01-09T01:22:34.117Z,986.1
2023-01-09T01:23:14.716Z,986.13
2023-01-09T01:23:55.203Z,986.11
2023-01-09T01:24:35.699Z,986.15
2023-01-09T01:25:16.223Z,986.14
2023-01-09T01:25:56.672Z,986.16
2023-01-09T01:26:37.164Z,986.12
2023-01-09T01:27:17.663Z,986.17
2023-01-09T01:27:58.165Z,986.14
2023-01-09T01:28:38.656Z,986.17
2023-01-09T01:29:19.164Z,986.16
2023-01-09T01:29:59.660Z,986.08
2023-01-09T01:30:40.240Z,986.16
2023-01-09T01:32:01.172Z,986.14
2023-01-09T01:32:41.711Z,986.11
2023-01-09T01:33:22.208Z,986.17
2023-01-09T01:34:02.691Z,986.14
2023-01-09T01:34:43.185Z,986.13
2023-01-09T01:35:23.720Z,986.15
2023-01-09T01:36:04.224Z,986.16
2023-01-09T01:36:44.757Z,986.19
2023-01-09T01:37:25.273Z,986.16
2023-01-09T01:38:05.762Z,986.15
2023-01-09T01:38:46.272Z,986.16
2023-01-09T01:39:26.767Z,986.15
2023-01-09T01:40:07.259Z,986.15
2023-01-09T01:40:47.791Z,986.11
2023-01-09T01:41:28.286Z,986.13
2023-01-09T01:42:08.816Z,986.18
2023-01-09T01:42:49.311Z,986.14
2023-01-09T01:43:29.798Z,986.16
2023-01-09T01:44:50.763Z,986.14
2023-01-09T01:45:31.251Z,986.18
2023-01-09T01:46:11.766Z,986.16
2023-01-09T01:46:52.272Z,986.14
2023-01-09T01:47:32.782Z,986.13
2023-01-09T01:48:13.232Z,986.19
2023-01-09T01:48:53.746Z,986.19
2023-01-09T01:49:34.295Z,986.22
2023-01-09T01:50:14.785Z,986.27
2023-01-09T01:50:55.269Z,986.26
2023-01-09T01:51:35.803Z,986.3
2023-01-09T01:52:16.313Z,986.36
2023-01-09T01:52:56.811Z,986.35
2023-01-09T01:53:37.323Z,986.39
2023-01-09T01:54:17.848Z,986.36
2023-01-09T01:54:58.324Z,986.37
2023-01-09T01:55:38.827Z,986.41
2023-01-09T01:56:19.336Z,986.43
2023-01-09T01:56:59.825Z,986.46
2023-01-09T01:57:40.326Z,986.45
2023-01-09T01:58:20.895Z,986.45
2023-01-09T01:59:01.364Z,986.48
2023-01-09T02:00:22.351Z,986.52
2023-01-09T02:01:02.919Z,986.55
2023-01-09T02:04:16.559Z,986.58
2023-01-09T02:04:57.229Z,986.53
2023-01-09T02:05:37.667Z,986.53
2023-01-09T02:06:18.128Z,986.58
2023-01-09T02:06:58.636Z,986.54
2023-01-09T02:07:39.119Z,986.59
2023-01-09T02:08:19.621Z,986.59
2023-01-09T02:09:00.143Z,986.57
2023-01-09T02:12:34.226Z,986.58
2023-01-09T02:13:14.972Z,986.55
2023-01-09T02:13:55.486Z,986.56
2023-01-09T02:14:35.962Z,986.55
2023-01-09T02:15:16.489Z,986.57
2023-01-09T02:15:57.070Z,986.54
2023-01-09T02:16:37.505Z,986.59
2023-01-09T02:17:18.034Z,986.58
2023-01-09T02:17:58.534Z,986.62
2023-01-09T02:18:39.014Z,986.6
2023-01-09T02:19:19.520Z,986.58
2023-01-09T02:20:00.037Z,986.61
2023-01-09T02:20:40.551Z,986.6
2023-01-09T02:21:21.084Z,986.54
2023-01-09T02:22:01.549Z,986.6
2023-01-09T02:22:42.138Z,986.53
2023-01-09T02:23:22.579Z,986.54
2023-01-09T02:24:03.124Z,986.54
2023-01-09T02:24:43.633Z,986.48
2023-01-09T02:25:24.077Z,986.47
2023-01-09T02:26:04.589Z,986.48
2023-01-09T02:26:45.105Z,986.49
2023-01-09T02:30:45.326Z,986.63
2023-01-09T02:31:25.760Z,986.57
2023-01-09T02:32:06.218Z,986.61
2023-01-09T02:32:46.714Z,986.61
2023-01-09T02:33:27.202Z,986.66
2023-01-09T02:34:07.700Z,986.69
2023-01-09T02:34:48.213Z,986.71
2023-01-09T02:35:28.753Z,986.69
2023-01-09T02:36:09.267Z,986.69
2023-01-09T02:36:49.771Z,986.71
2023-01-09T02:37:30.237Z,986.72
2023-01-09T02:38:10.688Z,986.71
2023-01-09T02:38:51.184Z,986.7
2023-01-09T02:39:31.673Z,986.74
2023-01-09T02:40:12.189Z,986.71
2023-01-09T02:40:52.716Z,986.74
2023-01-09T02:41:33.190Z,986.73
2023-01-09T02:42:13.712Z,986.8
2023-01-09T02:42:54.195Z,986.78
2023-01-09T02:43:34.718Z,986.73
2023-01-09T02:44:15.179Z,986.78
2023-01-09T02:45:36.225Z,986.77
2023-01-09T02:46:16.690Z,986.77
2023-01-09T02:46:57.185Z,986.8
2023-01-09T02:47:37.728Z,986.83
2023-01-09T02:48:18.213Z,986.84
2023-01-09T02:48:58.723Z,986.74
2023-01-09T02:49:39.205Z,986.8
2023-01-09T02:51:00.218Z,986.85
2023-01-09T02:51:40.733Z,986.86
2023-01-09T02:52:21.264Z,986.91
2023-01-09T02:53:01.694Z,986.88
2023-01-09T02:53:42.183Z,986.89
2023-01-09T02:54:22.683Z,986.87
2023-01-09T02:55:03.218Z,986.81
2023-01-09T02:55:43.706Z,986.83
2023-01-09T02:56:24.183Z,986.84
2023-01-09T02:57:04.671Z,986.79
2023-01-09T02:57:45.199Z,986.83
2023-01-09T02:58:25.759Z,986.76
2023-01-09T02:59:06.199Z,986.77
2023-01-09T02:59:46.671Z,986.76
2023-01-09T03:00:27.144Z,986.76
2023-01-09T03:01:07.736Z,986.74
2023-01-09T03:01:48.293Z,986.78
2023-01-09T03:02:28.618Z,986.8
2023-01-09T03:03:09.160Z,986.8
2023-01-09T03:03:49.614Z,986.87
2023-01-09T03:04:30.089Z,986.85
2023-01-09T03:05:10.579Z,986.86
2023-01-09T03:05:51.124Z,986.83
2023-01-09T03:06:31.638Z,986.87
2023-01-09T03:07:12.072Z,986.86
2023-01-09T03:07:52.597Z,986.77
2023-01-09T03:08:33.087Z,986.76
2023-01-09T03:09:13.563Z,986.77
2023-01-09T03:09:54.061Z,986.8
2023-01-09T03:10:34.575Z,986.86
2023-01-09T03:11:15.102Z,986.83
2023-01-09T03:11:55.601Z,986.73
2023-01-09T03:12:36.081Z,986.82
2023-01-09T03:13:16.559Z,986.88
2023-01-09T03:13:57.058Z,986.82
2023-01-09T03:14:37.530Z,986.88
2023-01-09T03:15:18.025Z,986.9
2023-01-09T03:15:58.553Z,986.85
2023-01-09T03:16:39.063Z,986.86
2023-01-09T03:17:19.548Z,986.89
2023-01-09T03:18:00.042Z,986.89
2023-01-09T03:18:40.556Z,986.87
2023-01-09T03:19:21.066Z,986.82
2023-01-09T03:20:01.560Z,986.84
2023-01-09T03:20:42.067Z,986.82
2023-01-09T03:21:22.639Z,986.82
2023-01-09T03:22:03.079Z,986.87
2023-01-09T03:22:43.576Z,986.91
2023-01-09T03:23:24.061Z,986.93
2023-01-09T03:24:04.558Z,986.93
2023-01-09T03:24:45.052Z,986.92
2023-01-09T03:25:25.572Z,986.91
2023-01-09T03:26:06.101Z,986.95
2023-01-09T03:26:47.086Z,986.9
2023-01-09T03:27:27.088Z,986.88
2023-01-09T03:28:07.609Z,986.93
2023-01-09T03:28:48.058Z,986.97
2023-01-09T03:29:29.598Z,986.96
2023-01-09T03:30:09.025Z,986.97
2023-01-09T03:30:49.566Z,986.89
2023-01-09T03:31:30.131Z,986.93
2023-01-09T03:32:10.558Z,986.98
2023-01-09T03:32:51.048Z,986.87
2023-01-09T03:33:31.546Z,986.86
2023-01-09T03:34:12.038Z,986.94
2023-01-09T03:34:52.563Z,986.89
2023-01-09T03:35:33.050Z,986.97
2023-01-09T03:36:13.583Z,986.89
2023-01-09T03:36:54.120Z,986.96
2023-01-09T03:37:34.588Z,986.95
2023-01-09T03:38:15.113Z,986.93
2023-01-09T03:38:55.580Z,986.94
2023-01-09T03:39:36.089Z,986.98
2023-01-09T03:40:16.565Z,987.01
2023-01-09T03:40:58.035Z,986.98
2023-01-09T03:41:38.552Z,987
2023-01-09T03:42:19.086Z,987.03
2023-01-09T03:42:59.539Z,987
2023-01-09T03:43:40.026Z,986.99
2023-01-09T03:44:20.578Z,987.03
2023-01-09T03:45:01.107Z,987.04
2023-01-09T03:45:41.546Z,987.02
2023-01-09T03:46:22.107Z,987.1
2023-01-09T03:47:02.549Z,987.07
2023-01-09T03:47:43.061Z,987.11
2023-01-09T03:48:23.562Z,987.08
2023-01-09T03:49:04.030Z,987.12
2023-01-09T03:49:44.535Z,987.13
2023-01-09T03:50:24.999Z,987.08
2023-01-09T03:51:05.547Z,987.12
2023-01-09T03:51:46.055Z,987.14
2023-01-09T03:52:26.562Z,987.15
2023-01-09T03:53:07.028Z,987.17
2023-01-09T03:53:47.539Z,987.17
2023-01-09T03:54:28.032Z,987.15
2023-01-09T03:55:08.549Z,987.16
2023-01-09T03:55:49.013Z,987.2
2023-01-09T03:56:29.507Z,987.2
2023-01-09T03:57:09.997Z,987.23
2023-01-09T03:57:50.478Z,987.27
2023-01-09T03:58:30.970Z,987.23
2023-01-09T03:59:11.461Z,987.26
2023-01-09T03:59:51.944Z,987.27
2023-01-09T04:00:32.467Z,987.21
2023-01-09T04:01:13.242Z,987.22
2023-01-09T04:01:53.585Z,987.26
2023-01-09T04:02:33.926Z,987.24
2023-01-09T04:03:14.443Z,987.23
2023-01-09T04:03:54.957Z,987.21
2023-01-09T04:04:35.386Z,987.21
2023-01-09T04:05:15.882Z,987.2
2023-01-09T04:05:56.453Z,987.19
2023-01-09T04:06:36.880Z,987.24
2023-01-09T04:07:17.372Z,987.21
2023-01-09T04:07:57.945Z,987.19
2023-01-09T04:08:38.361Z,987.21
2023-01-09T04:09:18.879Z,987.23
2023-01-09T04:10:00.155Z,987.21
2023-01-09T04:10:40.631Z,987.22
2023-01-09T04:11:21.154Z,987.25
2023-01-09T04:12:01.685Z,987.25
2023-01-09T04:12:42.161Z,987.28
2023-01-09T04:13:22.706Z,987.28
2023-01-09T04:14:03.219Z,987.29
2023-01-09T04:14:43.711Z,987.27
2023-01-09T04:15:24.221Z,987.28
2023-01-09T04:16:04.763Z,987.27
2023-01-09T04:16:45.309Z,987.3
2023-01-09T04:17:25.718Z,987.31
2023-01-09T04:18:06.220Z,987.3
2023-01-09T04:18:46.722Z,987.3
2023-01-09T04:19:27.245Z,987.33
2023-01-09T04:20:07.748Z,987.34
2023-01-09T04:20:48.241Z,987.36
2023-01-09T04:22:09.337Z,987.37
2023-01-09T04:22:49.828Z,987.39
2023-01-09T04:23:30.309Z,987.4
2023-01-09T04:24:10.782Z,987.42
2023-01-09T04:24:51.258Z,987.4
2023-01-09T04:25:31.732Z,987.43
2023-01-09T04:26:12.232Z,987.4
2023-01-09T04:26:52.764Z,987.42
2023-01-09T04:27:33.282Z,987.42
2023-01-09T04:28:13.727Z,987.4
2023-01-09T04:28:54.227Z,987.46
2023-01-09T04:29:34.700Z,987.44
2023-01-09T04:30:15.230Z,987.49
2023-01-09T04:30:55.727Z,987.51
2023-01-09T04:31:36.297Z,987.51
2023-01-09T04:32:16.751Z,987.49
2023-01-09T04:32:57.271Z,987.49
2023-01-09T04:33:37.722Z,987.5
2023-01-09T04:34:18.242Z,987.57
2023-01-09T04:34:58.732Z,987.54
2023-01-09T04:35:39.304Z,987.55
2023-01-09T04:36:19.800Z,987.52
2023-01-09T04:37:00.313Z,987.61
2023-01-09T04:37:40.833Z,987.58
2023-01-09T04:38:21.373Z,987.55
2023-01-09T04:39:01.855Z,987.55
2023-01-09T04:39:42.323Z,987.52
2023-01-09T04:40:22.900Z,987.61
2023-01-09T04:41:03.346Z,987.59
2023-01-09T04:41:43.921Z,987.57
2023-01-09T04:42:24.439Z,987.61
2023-01-09T04:43:04.909Z,987.61
2023-01-09T04:43:45.367Z,987.62
2023-01-09T04:44:25.885Z,987.63
2023-01-09T04:45:06.413Z,987.64
2023-01-09T04:45:46.959Z,987.65
2023-01-09T04:46:27.426Z,987.65
2023-01-09T04:47:07.890Z,987.66
2023-01-09T04:47:48.372Z,987.64
2023-01-09T04:48:28.855Z,987.66
2023-01-09T04:49:49.931Z,987.68
2023-01-09T04:50:31.398Z,987.69
2023-01-09T04:51:11.504Z,987.64
2023-01-09T04:51:51.404Z,987.68
2023-01-09T04:52:31.905Z,987.66
2023-01-09T04:53:12.447Z,987.67
2023-01-09T04:53:52.975Z,987.67
2023-01-09T04:54:33.472Z,987.63
2023-01-09T04:55:13.906Z,987.63
2023-01-09T04:55:54.405Z,987.65
2023-01-09T04:57:15.423Z,987.64
2023-01-09T04:57:55.919Z,987.64
2023-01-09T04:58:36.372Z,987.62
2023-01-09T04:59:16.854Z,987.65
2023-01-09T04:59:57.357Z,987.65
2023-01-09T05:00:37.821Z,987.66
2023-01-09T05:01:18.377Z,987.68
2023-01-09T05:01:58.882Z,987.68
2023-01-09T05:02:39.330Z,987.67
2023-01-09T05:03:19.785Z,987.69
2023-01-09T05:04:00.358Z,987.72
2023-01-09T05:04:40.852Z,987.74
2023-01-09T05:05:21.348Z,987.7
2023-01-09T05:06:01.803Z,987.73
2023-01-09T05:06:42.463Z,987.71
2023-01-09T05:07:22.985Z,987.72
2023-01-09T05:08:03.495Z,987.7
2023-01-09T05:08:44.026Z,987.66
2023-01-09T05:09:24.628Z,987.67
2023-01-09T05:10:05.094Z,987.64
2023-01-09T05:10:45.567Z,987.63
2023-01-09T05:11:26.049Z,987.68
2023-01-09T05:12:07.613Z,987.72
2023-01-09T05:12:48.190Z,987.68
2023-01-09T05:13:28.697Z,987.71
2023-01-09T05:14:09.195Z,987.74
2023-01-09T05:14:49.719Z,987.75
2023-01-09T05:15:30.236Z,987.78
2023-01-09T05:16:10.839Z,987.75
2023-01-09T05:16:51.374Z,987.74
2023-01-09T05:17:31.881Z,987.72
2023-01-09T05:18:12.348Z,987.79
2023-01-09T05:18:52.851Z,987.79
2023-01-09T05:19:33.383Z,987.79
2023-01-09T05:20:13.860Z,987.74
2023-01-09T05:20:54.381Z,987.8
2023-01-09T05:21:34.967Z,987.76
2023-01-09T05:22:15.461Z,987.76
2023-01-09T05:22:56.019Z,987.76
2023-01-09T05:23:36.467Z,987.83
2023-01-09T05:24:16.973Z,987.8
2023-01-09T05:24:59.048Z,987.79
2023-01-09T05:25:37.963Z,987.8
2023-01-09T05:26:18.438Z,987.8
2023-01-09T05:27:39.458Z,987.73
2023-01-09T05:28:20.002Z,987.77
2023-01-09T05:29:00.487Z,987.84
2023-01-09T05:29:40.961Z,987.79
2023-01-09T05:30:21.446Z,987.83
2023-01-09T05:31:01.947Z,987.83
2023-01-09T05:31:42.550Z,987.81
2023-01-09T05:32:22.977Z,987.82
2023-01-09T05:33:03.499Z,987.76
2023-01-09T05:33:43.958Z,987.84
2023-01-09T05:34:24.429Z,987.81
2023-01-09T05:35:04.985Z,987.89
2023-01-09T05:35:45.455Z,987.9
2023-01-09T05:36:25.962Z,987.86
2023-01-09T05:37:06.658Z,987.88
2023-01-09T05:38:27.578Z,987.85
2023-01-09T05:39:08.114Z,987.86
2023-01-09T05:39:48.599Z,987.8
2023-01-09T05:41:09.744Z,987.88
2023-01-09T05:41:50.158Z,987.87
2023-01-09T05:42:30.744Z,987.88
2023-01-09T05:43:11.286Z,987.88
2023-01-09T05:43:51.808Z,987.92
2023-01-09T05:44:32.392Z,987.84
2023-01-09T05:45:13.718Z,987.81
2023-01-09T05:45:54.216Z,987.85
2023-01-09T05:46:34.727Z,987.84
2023-01-09T05:47:15.246Z,987.86
2023-01-09T05:47:56.063Z,987.79
2023-01-09T05:48:36.590Z,987.85
2023-01-09T05:51:53.264Z,987.85
2023-01-09T05:52:33.870Z,987.83
2023-01-09T06:32:20.438Z,987.94
2023-01-09T06:33:01.281Z,987.98
2023-01-09T06:33:42.699Z,987.96
2023-01-09T06:34:23.707Z,988.01
2023-01-09T06:35:04.683Z,988.01
2023-01-09T06:35:45.652Z,988.04
2023-01-09T06:37:07.790Z,988.06
2023-01-09T06:37:48.946Z,988.1
2023-01-09T06:38:30.100Z,988.06
2023-01-09T06:39:11.181Z,988.04
2023-01-09T06:39:52.515Z,988.07
2023-01-09T06:40:33.782Z,988.06
2023-01-09T06:41:14.740Z,988.09
2023-01-09T06:41:55.795Z,988.06
2023-01-09T06:42:36.769Z,988.07
2023-01-09T06:43:17.797Z,988.1
2023-01-09T06:43:58.816Z,988.06
2023-01-09T06:44:39.948Z,988.11
2023-01-09T06:45:20.978Z,988.12
2023-01-09T06:46:02.375Z,988.11
2023-01-09T06:47:24.826Z,988.1
2023-01-09T06:48:06.075Z,988.09
2023-01-09T06:48:47.254Z,988.07
2023-01-09T06:49:28.384Z,988.09
2023-01-09T06:50:09.328Z,988.11
2023-01-09T06:50:50.390Z,988.13
2023-01-09T06:51:31.908Z,988.07
2023-01-09T06:52:14.078Z,988.06
2023-01-09T06:52:55.110Z,988.13
2023-01-09T06:53:36.101Z,988.1
2023-01-09T06:54:17.410Z,988.04
2023-01-09T06:54:59.491Z,988.02
2023-01-09T06:55:40.442Z,988.01
2023-01-09T06:56:21.299Z,988.05
2023-01-09T06:57:02.344Z,988.06
2023-01-09T06:57:43.518Z,988.08
2023-01-09T06:58:24.503Z,988.05
2023-01-09T06:59:05.690Z,988.05
2023-01-09T06:59:46.680Z,988.04
2023-01-09T07:00:27.850Z,988.03
2023-01-09T07:01:09.072Z,988
2023-01-09T07:01:50.301Z,987.99
2023-01-09T07:03:12.739Z,988.01
2023-01-09T07:03:54.007Z,988.01
2023-01-09T07:04:35.075Z,987.97
2023-01-09T07:05:16.148Z,987.99
2023-01-09T07:05:57.046Z,988
2023-01-09T07:06:38.143Z,988.04
2023-01-09T07:07:19.211Z,988.03
2023-01-09T07:10:21.833Z,988.05
2023-01-09T07:11:02.680Z,988.15
2023-01-09T07:11:43.234Z,988.14
2023-01-09T07:12:23.758Z,988.08
2023-01-09T07:13:04.286Z,988.12
2023-01-09T07:13:44.831Z,988.09
2023-01-09T07:14:25.323Z,988.08
2023-01-09T07:15:07.557Z,988.1
2023-01-09T07:15:48.042Z,988.11
2023-01-09T07:16:28.707Z,988.09
2023-01-09T07:17:09.189Z,988.11
2023-01-09T07:17:49.994Z,988.14
2023-01-09T07:18:30.613Z,988.17
2023-01-09T07:19:11.269Z,988.11
2023-01-09T07:19:51.768Z,988.05
2023-01-09T07:20:33.271Z,988.09
2023-01-09T07:21:13.797Z,988.12
2023-01-09T07:21:54.324Z,988.11
2023-01-09T07:22:35.027Z,988.12
2023-01-09T07:23:16.151Z,988.17
2023-01-09T07:23:57.763Z,988.18
2023-01-09T07:24:38.607Z,988.17
2023-01-09T07:25:19.159Z,988.17
2023-01-09T07:25:59.728Z,988.19
2023-01-09T07:26:43.416Z,988.21
2023-01-09T07:27:23.764Z,988.22
2023-01-09T07:28:05.446Z,988.17
2023-01-09T07:28:45.981Z,988.19
2023-01-09T07:29:26.498Z,988.22
2023-01-09T07:32:57.829Z,988.28
2023-01-09T07:33:39.658Z,988.19
2023-01-09T07:34:20.259Z,988.2
2023-01-09T07:35:00.671Z,988.19
2023-01-09T07:35:41.276Z,988.23
2023-01-09T07:36:22.285Z,988.21
2023-01-09T07:37:02.933Z,988.2
2023-01-09T07:37:43.796Z,988.26
2023-01-09T07:38:25.781Z,988.21
2023-01-09T07:39:06.578Z,988.21
2023-01-09T07:39:47.477Z,988.2
2023-01-09T07:40:28.254Z,988.26
2023-01-09T07:41:08.817Z,988.26
2023-01-09T07:41:49.484Z,988.26
2023-01-09T07:42:30.043Z,988.25
2023-01-09T07:43:10.794Z,988.31
2023-01-09T07:43:51.418Z,988.32
2023-01-09T07:44:32.461Z,988.27
2023-01-09T07:45:13.123Z,988.27
2023-01-09T07:45:53.857Z,988.31
2023-01-09T07:46:34.361Z,988.35
2023-01-09T07:47:14.923Z,988.34
2023-01-09T07:47:56.126Z,988.39
2023-01-09T07:48:36.705Z,988.37
2023-01-09T07:49:17.254Z,988.42
2023-01-09T07:49:58.172Z,988.4
2023-01-09T07:50:40.516Z,988.42
2023-01-09T07:52:45.624Z,988.48
2023-01-09T07:53:26.755Z,988.47
2023-01-09T07:54:07.310Z,988.52
2023-01-09T07:54:47.909Z,988.48
2023-01-09T07:55:28.446Z,988.45
2023-01-09T07:56:49.772Z,988.51
2023-01-09T07:57:30.352Z,988.56
2023-01-09T07:58:10.907Z,988.57
2023-01-09T07:58:51.593Z,988.6
2023-01-09T07:59:32.026Z,988.57
2023-01-09T08:00:12.684Z,988.59
2023-01-09T08:00:53.364Z,988.55
2023-01-09T08:05:26.036Z,988.51
2023-01-09T08:06:06.396Z,988.54
2023-01-09T08:06:47.997Z,988.61
2023-01-09T08:07:27.933Z,988.57
2023-01-09T08:08:08.449Z,988.56
2023-01-09T08:08:49.036Z,988.6
2023-01-09T08:09:29.783Z,988.61
2023-01-09T08:10:10.208Z,988.57
2023-01-09T08:10:51.068Z,988.66
2023-01-09T08:11:31.655Z,988.7
2023-01-09T08:12:12.190Z,988.68
2023-01-09T08:12:52.844Z,988.69
2023-01-09T08:13:33.397Z,988.72
2023-01-09T08:14:13.912Z,988.71
2023-01-09T08:14:54.407Z,988.71
2023-01-09T08:15:35.538Z,988.69
2023-01-09T08:16:16.635Z,988.71
2023-01-09T08:16:57.494Z,988.72
2023-01-09T08:17:37.847Z,988.67
2023-01-09T08:18:18.514Z,988.77
2023-01-09T08:19:01.002Z,988.73
2023-01-09T08:19:41.528Z,988.74
2023-01-09T08:20:22.053Z,988.67
2023-01-09T08:21:02.593Z,988.71
2023-01-09T08:21:43.199Z,988.73
2023-01-09T08:22:24.002Z,988.69
2023-01-09T08:23:04.632Z,988.73
2023-01-09T08:23:45.414Z,988.73
2023-01-09T08:24:26.854Z,988.69
2023-01-09T08:25:10.538Z,988.72
2023-01-09T08:25:49.520Z,988.76
2023-01-09T08:26:30.061Z,988.73
2023-01-09T08:27:10.680Z,988.74
2023-01-09T08:27:51.702Z,988.77
2023-01-09T08:28:32.677Z,988.74
2023-01-09T08:29:14.155Z,988.81
2023-01-09T08:29:54.986Z,988.78
2023-01-09T08:30:36.239Z,988.84
2023-01-09T08:31:18.068Z,988.78
2023-01-09T08:31:58.722Z,988.76
2023-01-09T08:33:20.278Z,988.84
2023-01-09T08:34:01.006Z,988.83
2023-01-09T08:34:41.691Z,988.82
2023-01-09T08:35:22.467Z,988.84
2023-01-09T08:36:02.866Z,988.84
2023-01-09T08:36:43.352Z,988.89
2023-01-09T08:37:23.866Z,988.83
2023-01-09T08:38:04.448Z,988.9
2023-01-09T08:38:44.984Z,988.84
2023-01-09T08:39:25.985Z,988.88
2023-01-09T08:40:06.644Z,988.93
2023-01-09T08:40:47.353Z,988.9
2023-01-09T08:41:28.046Z,988.96
2023-01-09T08:42:09.040Z,988.91
2023-01-09T08:42:49.762Z,989.01
2023-01-09T08:43:30.215Z,988.94
2023-01-09T08:44:10.821Z,988.93
2023-01-09T08:44:51.381Z,988.93
2023-01-09T08:45:32.079Z,988.93
2023-01-09T08:46:12.706Z,988.91
2023-01-09T08:46:53.396Z,988.94
2023-01-09T08:47:33.883Z,988.95
2023-01-09T08:48:14.449Z,988.95
2023-01-09T08:48:55.047Z,988.95
2023-01-09T08:49:36.801Z,988.98
2023-01-09T08:50:17.408Z,989.02
2023-01-09T08:50:59.520Z,988.97
2023-01-09T08:51:40.258Z,988.94
2023-01-09T08:52:20.864Z,989.02
2023-01-09T08:53:01.424Z,988.99
2023-01-09T08:53:42.023Z,988.95
2023-01-09T08:54:23.119Z,988.98
2023-01-09T08:55:03.682Z,989
2023-01-09T08:55:44.431Z,988.97
2023-01-09T08:58:59.579Z,989
2023-01-09T08:59:40.563Z,989.02
2023-01-09T09:00:21.205Z,989.03
2023-01-09T09:01:01.869Z,989.11
2023-01-09T09:01:42.639Z,989.05
2023-01-09T09:02:23.136Z,989.06
2023-01-09T09:03:03.772Z,989.07
2023-01-09T09:03:44.193Z,989.09
2023-01-09T09:04:25.094Z,989.07
2023-01-09T09:05:05.569Z,989.1
2023-01-09T09:05:46.921Z,989.1
2023-01-09T09:06:26.988Z,989.12
2023-01-09T09:07:07.622Z,989.07
2023-01-09T09:07:48.311Z,989.07
2023-01-09T09:08:28.827Z,989.07
2023-01-09T09:09:09.366Z,989.08
2023-01-09T09:09:50.036Z,989.04
2023-01-09T09:10:31.099Z,989.07
2023-01-09T09:11:11.756Z,989.11
2023-01-09T09:11:52.307Z,989.15
2023-01-09T09:12:32.995Z,989.09
2023-01-09T09:13:13.663Z,989.17
2023-01-09T09:13:54.308Z,989.09
2023-01-09T09:14:34.990Z,989.08
2023-01-09T09:15:15.612Z,989.13
2023-01-09T09:15:56.283Z,989.14
2023-01-09T09:16:36.731Z,989.14
2023-01-09T09:17:17.279Z,989.17
2023-01-09T09:17:58.098Z,989.23
2023-01-09T09:18:38.593Z,989.17
2023-01-09T09:19:19.275Z,989.25
2023-01-09T09:20:40.284Z,989.23
2023-01-09T09:21:20.816Z,989.2
2023-01-09T09:22:01.428Z,989.21
2023-01-09T09:22:41.968Z,989.2
2023-01-09T09:23:22.655Z,989.23
2023-01-09T09:24:03.255Z,989.25
2023-01-09T09:24:43.798Z,989.31
2023-01-09T09:25:24.428Z,989.27
2023-01-09T09:26:05.020Z,989.28
2023-01-09T09:26:45.620Z,989.35
2023-01-09T09:27:26.375Z,989.34
2023-01-09T09:28:07.042Z,989.41
2023-01-09T09:28:47.594Z,989.31
2023-01-09T09:29:28.351Z,989.37
2023-01-09T09:30:51.135Z,989.33
2023-01-09T09:31:30.456Z,989.35
2023-01-09T09:32:10.986Z,989.36
2023-01-09T09:32:51.629Z,989.35
2023-01-09T09:33:32.279Z,989.33
2023-01-09T09:34:12.794Z,989.37
2023-01-09T09:34:53.345Z,989.44
2023-01-09T09:35:33.942Z,989.41
2023-01-09T09:36:14.505Z,989.47
2023-01-09T09:36:55.770Z,989.48
2023-01-09T09:37:36.176Z,989.41
2023-01-09T09:38:16.675Z,989.28
2023-01-09T09:38:57.267Z,989.35
2023-01-09T09:39:38.065Z,989.42
2023-01-09T09:40:19.079Z,989.44
2023-01-09T09:40:59.219Z,989.44
2023-01-09T09:41:39.780Z,989.45
2023-01-09T09:42:20.357Z,989.47
2023-01-09T09:43:00.951Z,989.49
2023-01-09T09:43:43.255Z,989.51
2023-01-09T09:44:22.048Z,989.49
2023-01-09T09:45:02.565Z,989.56
2023-01-09T09:45:43.197Z,989.53
2023-01-09T09:46:23.876Z,989.57
2023-01-09T09:47:04.414Z,989.6
2023-01-09T09:47:44.932Z,989.62
2023-01-09T09:48:25.645Z,989.57
2023-01-09T09:49:07.129Z,989.56
2023-01-09T09:49:46.916Z,989.55
2023-01-09T09:50:29.056Z,989.62
2023-01-09T09:51:09.690Z,989.56
2023-01-09T09:51:50.244Z,989.62
2023-01-09T09:52:31.810Z,989.62
2023-01-09T09:53:12.256Z,989.62
2023-01-09T09:53:52.782Z,989.71
2023-01-09T09:54:33.702Z,989.71
2023-01-09T09:55:15.051Z,989.66
2023-01-09T09:55:56.258Z,989.64
2023-01-09T10:01:32.673Z,989.75
2023-01-09T10:02:13.807Z,989.78
2023-01-09T10:04:30.181Z,989.81
2023-01-09T10:05:11.197Z,989.86
2023-01-09T10:05:51.814Z,989.76
2023-01-09T10:06:32.343Z,989.77
2023-01-09T10:07:12.876Z,989.83
2023-01-09T10:07:53.432Z,989.92
2023-01-09T10:08:33.932Z,989.86
2023-01-09T10:09:14.516Z,989.87
2023-01-09T10:09:55.467Z,989.9
2023-01-09T10:10:35.966Z,989.87
2023-01-09T10:11:16.495Z,989.92
2023-01-09T10:11:56.996Z,989.95
2023-01-09T10:12:37.525Z,990.01
2023-01-09T10:13:18.033Z,989.86
2023-01-09T10:13:58.587Z,989.97
2023-01-09T10:14:39.265Z,990
2023-01-09T10:15:19.854Z,990.02
2023-01-09T10:16:00.454Z,989.99
2023-01-09T10:16:40.906Z,990.02
2023-01-09T10:17:21.507Z,990.02
2023-01-09T10:18:01.989Z,990.08
2023-01-09T10:20:17.322Z,990
2023-01-09T10:20:57.670Z,990.02
2023-01-09T10:21:38.319Z,990.01
2023-01-09T10:22:18.930Z,990.02
2023-01-09T10:22:59.693Z,989.99
2023-01-09T10:23:40.354Z,989.97
2023-01-09T10:24:20.890Z,990.01
2023-01-09T10:25:01.743Z,990.06
2023-01-09T10:25:42.322Z,990.02
2023-01-09T10:26:22.965Z,990.02